createdAt,value
2017-04-22T00:00:40.963Z,9.58
2017-04-22T00:01:41.536Z,9.51
2017-04-22T00:02:42.112Z,9.50
2017-04-22T00:03:42.684Z,9.56
2017-04-22T00:04:43.258Z,9.48
2017-04-22T00:05:43.831Z,9.54
2017-04-22T00:06:44.404Z,9.48
2017-04-22T00:07:44.979Z,9.55
2017-04-22T00:08:45.550Z,9.54
2017-04-22T00:09:46.122Z,9.51
2017-04-22T00:10:46.695Z,9.47
2017-04-22T00:11:47.272Z,9.41
2017-04-22T00:12:47.860Z,9.44
2017-04-22T00:13:48.431Z,9.41
2017-04-22T00:14:49.004Z,9.46
2017-04-22T00:15:49.578Z,9.40
2017-04-22T00:16:50.155Z,9.43
2017-04-22T00:17:50.727Z,9.40
2017-04-22T00:18:51.302Z,9.46
2017-04-22T00:19:51.874Z,9.41
2017-04-22T00:20:52.449Z,9.46
2017-04-22T00:21:53.021Z,9.36
2017-04-22T00:22:53.595Z,9.32
2017-04-22T00:23:54.168Z,9.36
2017-04-22T00:24:54.740Z,9.39
2017-04-22T00:25:55.312Z,9.25
2017-04-22T00:26:55.884Z,9.23
2017-04-22T00:27:56.456Z,9.21
2017-04-22T00:28:57.028Z,9.22
2017-04-22T00:29:57.601Z,9.29
2017-04-22T00:30:58.175Z,9.22
2017-04-22T00:31:58.749Z,9.21
2017-04-22T00:32:59.323Z,9.21
2017-04-22T00:33:59.900Z,9.19
2017-04-22T00:35:00.469Z,9.23
2017-04-22T00:36:01.042Z,9.22
2017-04-22T00:37:01.628Z,9.10
2017-04-22T00:38:02.201Z,9.04
2017-04-22T00:39:02.776Z,8.95
2017-04-22T00:40:03.363Z,8.88
2017-04-22T00:41:03.936Z,8.91
2017-04-22T00:42:04.510Z,8.88
2017-04-22T00:43:05.084Z,8.73
2017-04-22T00:44:05.659Z,8.73
2017-04-22T00:45:06.231Z,8.69
2017-04-22T00:46:06.806Z,8.70
2017-04-22T00:47:07.378Z,8.64
2017-04-22T00:48:07.951Z,8.69
2017-04-22T00:49:08.523Z,8.58
2017-04-22T00:50:09.095Z,8.66
2017-04-22T00:51:09.667Z,8.61
2017-04-22T00:52:10.240Z,8.63
2017-04-22T00:53:10.812Z,8.61
2017-04-22T00:54:11.386Z,8.60
2017-04-22T00:55:11.963Z,8.55
2017-04-22T00:56:12.549Z,8.58
2017-04-22T00:57:13.137Z,8.51
2017-04-22T00:58:13.710Z,8.34
2017-04-22T00:59:14.282Z,8.23
2017-04-22T01:00:14.854Z,8.08
2017-04-22T01:01:15.425Z,8.05
2017-04-22T01:02:16.001Z,7.97
2017-04-22T01:03:16.574Z,7.97
2017-04-22T01:04:17.147Z,7.79
2017-04-22T01:05:17.721Z,7.90
2017-04-22T01:06:18.292Z,7.77
2017-04-22T01:07:18.866Z,7.82
2017-04-22T01:08:20.851Z,7.76
2017-04-22T01:09:21.423Z,7.72
2017-04-22T01:10:22.007Z,7.63
2017-04-22T01:11:22.578Z,7.72
2017-04-22T01:12:23.150Z,7.66
2017-04-22T01:13:23.721Z,7.54
2017-04-22T01:14:24.294Z,7.70
2017-04-22T01:15:24.864Z,7.70
2017-04-22T01:16:25.436Z,7.66
2017-04-22T01:17:26.049Z,7.70
2017-04-22T01:18:26.623Z,7.72
2017-04-22T01:19:27.191Z,7.75
2017-04-22T01:20:27.763Z,7.76
2017-04-22T01:21:28.332Z,7.70
2017-04-22T01:22:28.903Z,7.70
2017-04-22T01:23:29.474Z,7.67
2017-04-22T01:24:30.045Z,7.70
2017-04-22T01:25:30.615Z,7.72
2017-04-22T01:26:31.187Z,7.72
2017-04-22T01:27:31.757Z,7.66
2017-04-22T01:28:32.329Z,7.66
2017-04-22T01:29:32.913Z,7.69
2017-04-22T01:30:33.484Z,7.70
2017-04-22T01:31:34.058Z,7.69
2017-04-22T01:32:34.640Z,7.63
2017-04-22T01:33:35.212Z,7.66
2017-04-22T01:34:35.784Z,7.47
2017-04-22T01:35:36.356Z,7.56
2017-04-22T01:36:36.929Z,7.48
2017-04-22T01:37:37.514Z,7.45
2017-04-22T01:38:38.085Z,7.48
2017-04-22T01:39:38.654Z,7.42
2017-04-22T01:40:39.224Z,7.40
2017-04-22T01:41:39.808Z,7.45
2017-04-22T01:42:40.381Z,7.43
2017-04-22T01:43:40.951Z,7.42
2017-04-22T01:44:41.522Z,7.40
2017-04-22T01:45:42.094Z,7.43
2017-04-22T01:46:42.665Z,7.39
2017-04-22T01:47:43.237Z,7.39
2017-04-22T01:48:43.808Z,7.47
2017-04-22T01:49:44.390Z,7.48
2017-04-22T01:50:44.964Z,7.35
2017-04-22T01:51:45.546Z,7.33
2017-04-22T01:52:46.117Z,7.31
2017-04-22T01:53:46.688Z,7.33
2017-04-22T01:54:47.260Z,7.32
2017-04-22T01:55:47.843Z,7.32
2017-04-22T01:56:48.412Z,7.13
2017-04-22T01:57:48.986Z,7.29
2017-04-22T01:58:49.556Z,7.32
2017-04-22T01:59:50.128Z,7.39
2017-04-22T02:00:50.699Z,7.35
2017-04-22T02:01:51.269Z,7.18
2017-04-22T02:02:51.841Z,7.29
2017-04-22T02:03:52.412Z,7.18
2017-04-22T02:04:52.985Z,7.15
2017-04-22T02:05:53.553Z,7.31
2017-04-22T02:06:54.123Z,7.28
2017-04-22T02:07:54.693Z,7.18
2017-04-22T02:08:55.265Z,7.25
2017-04-22T02:09:55.835Z,7.18
2017-04-22T02:10:56.404Z,7.03
2017-04-22T02:11:56.974Z,7.15
2017-04-22T02:12:57.544Z,7.23
2017-04-22T02:13:58.116Z,7.17
2017-04-22T02:14:58.686Z,7.21
2017-04-22T02:15:59.257Z,7.17
2017-04-22T02:16:59.828Z,7.05
2017-04-22T02:18:00.399Z,7.17
2017-04-22T02:19:00.969Z,7.11
2017-04-22T02:20:01.541Z,7.17
2017-04-22T02:21:02.110Z,7.17
2017-04-22T02:22:02.694Z,7.20
2017-04-22T02:23:03.266Z,7.15
2017-04-22T02:24:03.836Z,7.18
2017-04-22T02:25:04.409Z,7.17
2017-04-22T02:26:04.979Z,7.15
2017-04-22T02:27:05.551Z,7.21
2017-04-22T02:28:06.121Z,7.21
2017-04-22T02:29:06.692Z,7.17
2017-04-22T02:30:07.263Z,7.15
2017-04-22T02:31:07.835Z,7.17
2017-04-22T02:32:08.404Z,7.10
2017-04-22T02:33:08.974Z,7.03
2017-04-22T02:34:09.544Z,7.15
2017-04-22T02:35:10.116Z,7.14
2017-04-22T02:36:10.692Z,7.11
2017-04-22T02:37:11.257Z,7.14
2017-04-22T02:38:11.827Z,7.06
2017-04-22T02:39:12.398Z,7.03
2017-04-22T02:40:12.969Z,7.05
2017-04-22T02:41:13.540Z,7.10
2017-04-22T02:42:14.109Z,7.06
2017-04-22T02:43:14.680Z,7.05
2017-04-22T02:44:15.253Z,7.06
2017-04-22T02:45:15.823Z,7.02
2017-04-22T02:46:16.393Z,7.07
2017-04-22T02:47:16.963Z,7.05
2017-04-22T02:48:17.533Z,7.05
2017-04-22T02:49:18.105Z,7.03
2017-04-22T02:50:18.675Z,7.02
2017-04-22T02:51:19.245Z,6.99
2017-04-22T02:52:19.814Z,7.07
2017-04-22T02:53:20.386Z,7.10
2017-04-22T02:54:20.956Z,7.06
2017-04-22T02:55:21.525Z,6.96
2017-04-22T02:56:22.094Z,6.99
2017-04-22T02:57:22.663Z,7.05
2017-04-22T02:58:23.235Z,7.03
2017-04-22T02:59:23.820Z,6.92
2017-04-22T03:00:24.393Z,6.96
2017-04-22T03:01:24.964Z,6.93
2017-04-22T03:02:25.538Z,6.97
2017-04-22T03:03:26.120Z,6.97
2017-04-22T03:04:26.690Z,7.00
2017-04-22T03:05:27.262Z,7.00
2017-04-22T03:06:27.833Z,6.99
2017-04-22T03:07:28.417Z,6.95
2017-04-22T03:08:28.990Z,7.00
2017-04-22T03:09:29.561Z,6.96
2017-04-22T03:10:30.133Z,6.99
2017-04-22T03:11:30.704Z,7.00
2017-04-22T03:12:31.275Z,6.97
2017-04-22T03:13:31.846Z,6.97
2017-04-22T03:14:32.419Z,7.00
2017-04-22T03:15:32.989Z,7.00
2017-04-22T03:16:33.560Z,7.03
2017-04-22T03:17:34.143Z,6.97
2017-04-22T03:18:34.713Z,7.10
2017-04-22T03:19:35.285Z,7.05
2017-04-22T03:20:35.869Z,6.95
2017-04-22T03:21:36.439Z,7.05
2017-04-22T03:22:37.010Z,7.00
2017-04-22T03:23:37.581Z,7.03
2017-04-22T03:24:38.152Z,6.99
2017-04-22T03:25:38.726Z,7.05
2017-04-22T03:26:39.297Z,7.06
2017-04-22T03:27:39.868Z,7.10
2017-04-22T03:28:40.451Z,7.07
2017-04-22T03:29:41.023Z,7.02
2017-04-22T03:30:41.605Z,7.11
2017-04-22T03:31:42.211Z,7.05
2017-04-22T03:32:42.781Z,7.14
2017-04-22T03:33:43.353Z,7.15
2017-04-22T03:34:43.924Z,7.06
2017-04-22T03:35:44.496Z,7.13
2017-04-22T03:36:45.066Z,7.15
2017-04-22T03:37:45.639Z,7.17
2017-04-22T03:38:46.209Z,7.17
2017-04-22T03:39:46.865Z,7.15
2017-04-22T03:40:47.435Z,7.15
2017-04-22T03:41:48.007Z,7.11
2017-04-22T03:42:48.579Z,7.15
2017-04-22T03:43:49.151Z,7.17
2017-04-22T03:44:49.720Z,7.11
2017-04-22T03:45:50.302Z,7.07
2017-04-22T03:46:50.876Z,7.02
2017-04-22T03:47:51.444Z,7.00
2017-04-22T03:48:52.145Z,7.02
2017-04-22T03:49:52.714Z,7.13
2017-04-22T03:50:53.286Z,7.02
2017-04-22T03:51:53.856Z,7.03
2017-04-22T03:52:54.428Z,7.02
2017-04-22T03:53:54.998Z,7.07
2017-04-22T03:54:55.583Z,7.10
2017-04-22T03:55:56.155Z,7.06
2017-04-22T03:56:56.726Z,7.20
2017-04-22T03:57:57.298Z,7.05
2017-04-22T03:58:57.953Z,7.10
2017-04-22T03:59:58.525Z,7.10
2017-04-22T04:00:59.097Z,7.10
2017-04-22T04:01:59.673Z,7.10
2017-04-22T04:03:00.240Z,7.05
2017-04-22T04:04:00.810Z,7.07
2017-04-22T04:05:01.393Z,7.03
2017-04-22T04:06:01.964Z,7.03
2017-04-22T04:07:02.536Z,7.06
2017-04-22T04:08:03.106Z,7.11
2017-04-22T04:09:03.677Z,7.11
2017-04-22T04:10:04.248Z,7.03
2017-04-22T04:11:04.830Z,7.05
2017-04-22T04:12:05.414Z,7.02
2017-04-22T04:13:05.984Z,7.05
2017-04-22T04:14:06.555Z,7.03
2017-04-22T04:15:07.125Z,7.03
2017-04-22T04:16:07.695Z,7.07
2017-04-22T04:17:08.265Z,7.03
2017-04-22T04:18:08.836Z,7.07
2017-04-22T04:19:09.406Z,7.07
2017-04-22T04:20:09.975Z,7.10
2017-04-22T04:21:10.545Z,7.07
2017-04-22T04:22:11.114Z,7.06
2017-04-22T04:23:11.685Z,7.07
2017-04-22T04:24:12.259Z,7.10
2017-04-22T04:25:12.830Z,7.06
2017-04-22T04:26:13.414Z,7.05
2017-04-22T04:27:13.987Z,7.06
2017-04-22T04:28:14.558Z,7.02
2017-04-22T04:29:15.130Z,7.10
2017-04-22T04:30:15.701Z,7.10
2017-04-22T04:31:16.272Z,7.07
2017-04-22T04:32:16.844Z,7.05
2017-04-22T04:33:17.415Z,7.06
2017-04-22T04:34:17.988Z,7.03
2017-04-22T04:35:18.561Z,7.07
2017-04-22T04:36:19.133Z,7.06
2017-04-22T04:37:19.706Z,7.11
2017-04-22T04:38:20.281Z,7.03
2017-04-22T04:39:20.850Z,7.11
2017-04-22T04:40:21.422Z,7.05
2017-04-22T04:41:21.992Z,7.10
2017-04-22T04:42:22.564Z,7.11
2017-04-22T04:43:23.135Z,6.93
2017-04-22T04:44:23.706Z,7.10
2017-04-22T04:45:24.278Z,7.00
2017-04-22T04:46:24.863Z,7.05
2017-04-22T04:47:25.434Z,7.03
2017-04-22T04:48:26.004Z,7.06
2017-04-22T04:49:26.574Z,7.03
2017-04-22T04:50:27.144Z,6.99
2017-04-22T04:51:27.716Z,7.00
2017-04-22T04:52:28.288Z,6.96
2017-04-22T04:53:28.864Z,7.00
2017-04-22T04:54:29.512Z,6.97
2017-04-22T04:55:30.082Z,6.99
2017-04-22T04:56:30.667Z,7.02
2017-04-22T04:57:31.242Z,7.02
2017-04-22T04:58:31.813Z,7.00
2017-04-22T04:59:32.385Z,6.96
2017-04-22T05:00:32.957Z,6.95
2017-04-22T05:01:33.530Z,6.96
2017-04-22T05:02:34.103Z,6.99
2017-04-22T05:03:34.677Z,7.03
2017-04-22T05:04:35.249Z,7.05
2017-04-22T05:05:35.822Z,7.00
2017-04-22T05:06:36.393Z,6.92
2017-04-22T05:07:36.965Z,6.82
2017-04-22T05:08:37.537Z,7.00
2017-04-22T05:09:38.109Z,6.85
2017-04-22T05:10:38.681Z,6.87
2017-04-22T05:11:39.255Z,6.99
2017-04-22T05:12:39.830Z,6.92
2017-04-22T05:13:40.402Z,6.92
2017-04-22T05:14:40.977Z,6.92
2017-04-22T05:15:41.548Z,6.87
2017-04-22T05:16:42.120Z,6.89
2017-04-22T05:17:42.692Z,6.93
2017-04-22T05:18:43.277Z,6.88
2017-04-22T05:19:43.849Z,6.89
2017-04-22T05:20:44.420Z,6.96
2017-04-22T05:21:44.993Z,6.95
2017-04-22T05:22:45.578Z,6.85
2017-04-22T05:23:46.150Z,6.84
2017-04-22T05:24:46.722Z,6.85
2017-04-22T05:25:47.295Z,6.85
2017-04-22T05:26:47.866Z,6.88
2017-04-22T05:27:48.450Z,6.85
2017-04-22T05:28:49.023Z,6.85
2017-04-22T05:29:49.594Z,6.88
2017-04-22T05:30:50.165Z,6.77
2017-04-22T05:31:50.818Z,6.81
2017-04-22T05:32:51.390Z,6.85
2017-04-22T05:33:51.962Z,6.77
2017-04-22T05:34:52.538Z,6.77
2017-04-22T05:35:53.112Z,6.77
2017-04-22T05:36:53.689Z,6.79
2017-04-22T05:37:54.260Z,6.81
2017-04-22T05:38:54.846Z,6.78
2017-04-22T05:39:55.420Z,6.79
2017-04-22T05:40:56.009Z,6.70
2017-04-22T05:41:56.596Z,6.85
2017-04-22T05:42:57.168Z,6.81
2017-04-22T05:43:57.742Z,6.81
2017-04-22T05:44:58.315Z,6.85
2017-04-22T05:45:58.889Z,6.75
2017-04-22T05:46:59.463Z,6.88
2017-04-22T05:48:00.037Z,6.87
2017-04-22T05:49:00.612Z,6.97
2017-04-22T05:50:01.184Z,6.97
2017-04-22T05:51:01.762Z,7.05
2017-04-22T05:52:02.332Z,6.96
2017-04-22T05:53:02.905Z,7.02
2017-04-22T05:54:03.489Z,7.02
2017-04-22T05:55:04.063Z,6.97
2017-04-22T05:56:04.636Z,7.00
2017-04-22T05:57:05.267Z,7.05
2017-04-22T05:58:05.844Z,7.17
2017-04-22T05:59:06.431Z,7.14
2017-04-22T06:00:07.004Z,7.15
2017-04-22T06:01:07.580Z,7.11
2017-04-22T06:02:08.152Z,7.23
2017-04-22T06:03:08.726Z,7.18
2017-04-22T06:04:09.298Z,7.13
2017-04-22T06:05:09.872Z,7.15
2017-04-22T06:06:10.448Z,7.17
2017-04-22T06:07:11.021Z,7.25
2017-04-22T06:08:11.595Z,7.17
2017-04-22T06:09:12.168Z,7.25
2017-04-22T06:10:12.744Z,7.29
2017-04-22T06:11:13.328Z,7.28
2017-04-22T06:12:13.902Z,7.36
2017-04-22T06:13:14.476Z,7.43
2017-04-22T06:14:15.052Z,7.54
2017-04-22T06:15:15.625Z,7.39
2017-04-22T06:16:16.198Z,7.57
2017-04-22T06:17:16.771Z,7.61
2017-04-22T06:18:17.344Z,7.56
2017-04-22T06:19:17.918Z,7.50
2017-04-22T06:20:18.491Z,7.48
2017-04-22T06:21:19.067Z,7.53
2017-04-22T06:22:19.639Z,7.31
2017-04-22T06:23:20.214Z,7.24
2017-04-22T06:24:20.785Z,7.17
2017-04-22T06:25:21.359Z,7.25
2017-04-22T06:26:21.935Z,7.25
2017-04-22T06:27:22.508Z,7.29
2017-04-22T06:28:23.084Z,7.14
2017-04-22T06:29:23.658Z,7.17
2017-04-22T06:30:24.230Z,7.13
2017-04-22T06:31:24.803Z,7.17
2017-04-22T06:32:25.426Z,7.23
2017-04-22T06:33:26.001Z,7.21
2017-04-22T06:34:26.575Z,7.29
2017-04-22T06:35:27.148Z,7.33
2017-04-22T06:36:27.723Z,7.17
2017-04-22T06:37:28.310Z,7.15
2017-04-22T06:38:28.883Z,7.14
2017-04-22T06:39:29.459Z,7.29
2017-04-22T06:40:30.032Z,7.32
2017-04-22T06:41:30.606Z,7.43
2017-04-22T06:42:31.179Z,7.45
2017-04-22T06:43:31.753Z,7.54
2017-04-22T06:44:32.330Z,7.63
2017-04-22T06:45:32.903Z,7.42
2017-04-22T06:46:33.477Z,7.45
2017-04-22T06:47:34.051Z,7.29
2017-04-22T06:48:34.624Z,7.47
2017-04-22T06:49:35.210Z,7.54
2017-04-22T06:50:35.785Z,7.60
2017-04-22T06:51:36.358Z,7.51
2017-04-22T06:52:36.934Z,7.43
2017-04-22T06:53:37.506Z,7.42
2017-04-22T06:54:38.081Z,7.32
2017-04-22T06:55:38.654Z,7.40
2017-04-22T06:56:39.241Z,7.47
2017-04-22T06:57:39.814Z,7.40
2017-04-22T06:58:40.389Z,7.43
2017-04-22T06:59:40.962Z,7.43
2017-04-22T07:00:41.538Z,7.36
2017-04-22T07:01:42.111Z,7.29
2017-04-22T07:02:42.688Z,7.13
2017-04-22T07:03:43.262Z,7.18
2017-04-22T07:04:43.834Z,7.17
2017-04-22T07:05:44.410Z,7.20
2017-04-22T07:06:44.985Z,7.20
2017-04-22T07:07:45.560Z,7.15
2017-04-22T07:08:46.147Z,7.20
2017-04-22T07:09:46.719Z,7.39
2017-04-22T07:10:47.295Z,7.48
2017-04-22T07:11:47.868Z,7.69
2017-04-22T07:12:48.440Z,7.80
2017-04-22T07:13:49.014Z,7.82
2017-04-22T07:14:49.594Z,7.87
2017-04-22T07:15:50.171Z,7.85
2017-04-22T07:16:50.741Z,7.83
2017-04-22T07:17:51.313Z,7.87
2017-04-22T07:18:51.889Z,7.91
2017-04-22T07:19:52.465Z,8.06
2017-04-22T07:20:53.038Z,7.97
2017-04-22T07:21:53.611Z,7.98
2017-04-22T07:22:54.184Z,7.93
2017-04-22T07:23:54.758Z,8.00
2017-04-22T07:24:55.332Z,8.03
2017-04-22T07:25:55.908Z,8.15
2017-04-22T07:26:56.482Z,8.15
2017-04-22T07:27:57.056Z,8.13
2017-04-22T07:28:57.630Z,8.00
2017-04-22T07:29:58.218Z,7.97
2017-04-22T07:30:58.791Z,8.01
2017-04-22T07:31:59.378Z,8.12
2017-04-22T07:32:59.953Z,8.05
2017-04-22T07:34:00.525Z,7.97
2017-04-22T07:35:01.158Z,8.00
2017-04-22T07:36:01.732Z,7.91
2017-04-22T07:37:02.318Z,7.76
2017-04-22T07:38:02.893Z,7.50
2017-04-22T07:39:03.467Z,7.72
2017-04-22T07:40:04.041Z,7.83
2017-04-22T07:41:04.616Z,8.00
2017-04-22T07:42:05.189Z,8.06
2017-04-22T07:43:05.764Z,8.23
2017-04-22T07:44:06.338Z,8.37
2017-04-22T07:45:06.912Z,8.33
2017-04-22T07:46:07.488Z,8.30
2017-04-22T07:47:08.062Z,8.52
2017-04-22T07:48:08.637Z,8.66
2017-04-22T07:49:09.210Z,8.73
2017-04-22T07:50:09.785Z,8.85
2017-04-22T07:51:10.362Z,8.71
2017-04-22T07:52:10.940Z,8.49
2017-04-22T07:53:11.512Z,8.30
2017-04-22T07:54:12.087Z,8.44
2017-04-22T07:55:12.661Z,8.49
2017-04-22T07:56:13.237Z,8.36
2017-04-22T07:57:13.812Z,8.46
2017-04-22T07:58:14.388Z,8.46
2017-04-22T07:59:14.966Z,8.37
2017-04-22T08:00:15.536Z,8.13
2017-04-22T08:01:16.123Z,8.12
2017-04-22T08:02:16.697Z,8.36
2017-04-22T08:03:17.273Z,8.15
2017-04-22T08:04:17.850Z,8.16
2017-04-22T08:05:18.436Z,8.06
2017-04-22T08:06:19.010Z,8.26
2017-04-22T08:07:19.586Z,8.44
2017-04-22T08:08:20.161Z,8.44
2017-04-22T08:09:20.735Z,8.45
2017-04-22T08:10:21.314Z,8.41
2017-04-22T08:11:21.889Z,8.71
2017-04-22T08:12:22.465Z,8.67
2017-04-22T08:13:23.039Z,8.34
2017-04-22T08:14:23.627Z,8.45
2017-04-22T08:15:24.215Z,8.56
2017-04-22T08:16:24.791Z,8.45
2017-04-22T08:17:25.365Z,8.51
2017-04-22T08:18:25.939Z,8.45
2017-04-22T08:19:26.513Z,8.45
2017-04-22T08:20:27.086Z,8.36
2017-04-22T08:21:27.661Z,8.30
2017-04-22T08:22:28.236Z,8.38
2017-04-22T08:23:28.811Z,8.28
2017-04-22T08:24:29.387Z,8.30
2017-04-22T08:25:29.961Z,8.33
2017-04-22T08:26:30.537Z,8.36
2017-04-22T08:27:31.115Z,8.33
2017-04-22T08:28:31.702Z,8.30
2017-04-22T08:29:32.278Z,8.23
2017-04-22T08:30:32.852Z,8.15
2017-04-22T08:31:33.426Z,8.37
2017-04-22T08:32:34.000Z,8.31
2017-04-22T08:33:34.575Z,8.36
2017-04-22T08:34:35.151Z,8.33
2017-04-22T08:35:35.724Z,8.30
2017-04-22T08:36:36.299Z,8.38
2017-04-22T08:37:36.873Z,8.23
2017-04-22T08:38:37.450Z,8.26
2017-04-22T08:39:38.024Z,8.26
2017-04-22T08:40:38.599Z,8.19
2017-04-22T08:41:39.174Z,8.41
2017-04-22T08:42:39.747Z,8.42
2017-04-22T08:43:40.322Z,8.48
2017-04-22T08:44:40.911Z,8.82
2017-04-22T08:45:41.484Z,8.82
2017-04-22T08:46:42.058Z,9.08
2017-04-22T08:47:43.629Z,9.21
2017-04-22T08:48:44.219Z,9.36
2017-04-22T08:49:44.792Z,9.25
2017-04-22T08:50:45.366Z,9.28
2017-04-22T08:51:45.945Z,9.29
2017-04-22T08:52:46.523Z,9.18
2017-04-22T08:53:47.108Z,9.47
2017-04-22T08:54:47.685Z,9.59
2017-04-22T08:55:48.265Z,9.31
2017-04-22T08:56:48.851Z,9.66
2017-04-22T08:57:49.425Z,9.55
2017-04-22T08:58:50.000Z,9.54
2017-04-22T08:59:50.576Z,9.11
2017-04-22T09:00:51.153Z,8.82
2017-04-22T09:01:51.727Z,8.84
2017-04-22T09:02:52.301Z,8.99
2017-04-22T09:03:52.876Z,8.95
2017-04-22T09:04:53.449Z,9.06
2017-04-22T09:05:54.025Z,9.23
2017-04-22T09:06:54.599Z,9.26
2017-04-22T09:07:55.176Z,9.47
2017-04-22T09:08:55.752Z,9.51
2017-04-22T09:09:56.326Z,9.74
2017-04-22T09:10:56.902Z,9.26
2017-04-22T09:11:57.482Z,9.41
2017-04-22T09:12:58.056Z,9.47
2017-04-22T09:13:58.631Z,9.50
2017-04-22T09:14:59.217Z,9.79
2017-04-22T09:15:59.785Z,9.97
2017-04-22T09:17:00.358Z,9.77
2017-04-22T09:18:00.936Z,9.56
2017-04-22T09:19:01.514Z,9.59
2017-04-22T09:20:02.088Z,9.64
2017-04-22T09:21:02.667Z,10.25
2017-04-22T09:22:03.241Z,9.92
2017-04-22T09:23:03.817Z,9.91
2017-04-22T09:24:04.408Z,9.58
2017-04-22T09:25:04.982Z,9.84
2017-04-22T09:26:05.558Z,9.98
2017-04-22T09:27:06.135Z,9.94
2017-04-22T09:28:06.713Z,9.98
2017-04-22T09:29:07.290Z,9.77
2017-04-22T09:30:07.866Z,9.99
2017-04-22T09:31:08.443Z,10.20
2017-04-22T09:32:09.021Z,10.31
2017-04-22T09:33:09.598Z,10.02
2017-04-22T09:34:10.173Z,9.94
2017-04-22T09:35:10.748Z,9.87
2017-04-22T09:36:11.323Z,9.99
2017-04-22T09:37:11.901Z,9.94
2017-04-22T09:38:12.476Z,9.83
2017-04-22T09:39:13.052Z,9.84
2017-04-22T09:40:13.628Z,9.44
2017-04-22T09:41:14.203Z,9.72
2017-04-22T09:42:14.792Z,9.61
2017-04-22T09:43:15.365Z,9.54
2017-04-22T09:44:15.941Z,9.47
2017-04-22T09:45:16.517Z,9.58
2017-04-22T09:46:17.092Z,9.54
2017-04-22T09:47:17.670Z,9.66
2017-04-22T09:48:18.247Z,9.64
2017-04-22T09:49:18.823Z,9.86
2017-04-22T09:50:19.400Z,9.73
2017-04-22T09:51:19.975Z,9.56
2017-04-22T09:52:20.551Z,9.44
2017-04-22T09:53:21.127Z,9.47
2017-04-22T09:54:21.702Z,9.47
2017-04-22T09:55:22.280Z,9.37
2017-04-22T09:56:22.856Z,9.55
2017-04-22T09:57:23.433Z,9.43
2017-04-22T09:58:24.009Z,9.43
2017-04-22T09:59:24.584Z,9.44
2017-04-22T10:00:25.162Z,9.25
2017-04-22T10:01:25.737Z,9.29
2017-04-22T10:02:26.314Z,9.46
2017-04-22T10:03:26.889Z,9.51
2017-04-22T10:04:27.463Z,9.43
2017-04-22T10:05:28.041Z,9.48
2017-04-22T10:06:28.617Z,9.32
2017-04-22T10:07:29.194Z,9.29
2017-04-22T10:08:29.781Z,9.25
2017-04-22T10:09:30.355Z,9.19
2017-04-22T10:10:30.931Z,9.29
2017-04-22T10:11:31.506Z,9.23
2017-04-22T10:12:32.082Z,9.23
2017-04-22T10:13:32.659Z,9.16
2017-04-22T10:14:33.234Z,9.03
2017-04-22T10:15:33.810Z,9.04
2017-04-22T10:16:34.386Z,9.39
2017-04-22T10:17:34.961Z,9.40
2017-04-22T10:18:35.537Z,9.51
2017-04-22T10:19:36.112Z,9.76
2017-04-22T10:20:36.689Z,9.74
2017-04-22T10:21:37.264Z,9.61
2017-04-22T10:22:37.853Z,9.64
2017-04-22T10:23:38.430Z,9.56
2017-04-22T10:24:39.005Z,9.59
2017-04-22T10:25:39.595Z,10.01
2017-04-22T10:26:40.172Z,10.25
2017-04-22T10:27:40.751Z,10.28
2017-04-22T10:28:41.327Z,10.02
2017-04-22T10:29:41.903Z,10.37
2017-04-22T10:30:42.479Z,9.95
2017-04-22T10:31:43.055Z,9.94
2017-04-22T10:32:43.634Z,10.13
2017-04-22T10:33:44.212Z,10.19
2017-04-22T10:34:44.787Z,10.37
2017-04-22T10:35:45.378Z,10.28
2017-04-22T10:36:45.955Z,10.40
2017-04-22T10:37:46.534Z,10.54
2017-04-22T10:38:47.114Z,10.84
2017-04-22T10:39:47.691Z,10.86
2017-04-22T10:40:48.270Z,10.60
2017-04-22T10:41:48.849Z,10.51
2017-04-22T10:42:49.426Z,10.16
2017-04-22T10:43:50.016Z,10.19
2017-04-22T10:44:50.607Z,10.19
2017-04-22T10:45:51.184Z,10.17
2017-04-22T10:46:51.761Z,10.23
2017-04-22T10:47:52.338Z,10.20
2017-04-22T10:48:52.924Z,9.91
2017-04-22T10:49:53.501Z,9.74
2017-04-22T10:50:54.077Z,9.47
2017-04-22T10:51:54.655Z,9.46
2017-04-22T10:52:55.230Z,9.55
2017-04-22T10:53:55.805Z,9.68
2017-04-22T10:54:56.382Z,9.56
2017-04-22T10:55:56.957Z,9.51
2017-04-22T10:56:57.535Z,9.36
2017-04-22T10:57:58.109Z,9.41
2017-04-22T10:58:58.686Z,9.31
2017-04-22T10:59:59.261Z,9.08
2017-04-22T11:00:59.836Z,9.25
2017-04-22T11:02:00.413Z,9.46
2017-04-22T11:03:00.990Z,9.76
2017-04-22T11:04:01.569Z,9.72
2017-04-22T11:05:02.143Z,9.65
2017-04-22T11:06:02.724Z,9.62
2017-04-22T11:07:03.296Z,9.89
2017-04-22T11:08:03.872Z,9.89
2017-04-22T11:09:04.448Z,9.77
2017-04-22T11:10:05.040Z,9.79
2017-04-22T11:11:05.769Z,9.37
2017-04-22T11:12:06.347Z,9.56
2017-04-22T11:13:06.922Z,9.58
2017-04-22T11:14:07.500Z,9.44
2017-04-22T11:15:08.075Z,9.44
2017-04-22T11:16:08.650Z,9.25
2017-04-22T11:17:09.227Z,9.23
2017-04-22T11:18:09.803Z,9.29
2017-04-22T11:19:10.381Z,9.44
2017-04-22T11:20:10.954Z,9.76
2017-04-22T11:21:11.529Z,9.54
2017-04-22T11:22:12.102Z,9.58
2017-04-22T11:23:12.678Z,9.47
2017-04-22T11:24:13.256Z,9.26
2017-04-22T11:25:13.830Z,9.40
2017-04-22T11:26:14.409Z,9.44
2017-04-22T11:27:14.984Z,9.66
2017-04-22T11:28:15.563Z,10.04
2017-04-22T11:29:16.142Z,10.33
2017-04-22T11:30:16.719Z,10.63
2017-04-22T11:31:17.296Z,10.41
2017-04-22T11:32:17.876Z,10.57
2017-04-22T11:33:18.452Z,10.15
2017-04-22T11:34:19.028Z,10.12
2017-04-22T11:35:19.605Z,9.99
2017-04-22T11:36:20.181Z,9.99
2017-04-22T11:37:20.759Z,10.07
2017-04-22T11:38:21.334Z,9.98
2017-04-22T11:39:21.910Z,10.02
2017-04-22T11:40:22.487Z,9.91
2017-04-22T11:41:23.067Z,9.83
2017-04-22T11:42:23.642Z,9.87
2017-04-22T11:43:24.217Z,9.99
2017-04-22T11:44:24.793Z,9.99
2017-04-22T11:45:25.372Z,10.20
2017-04-22T11:46:25.948Z,10.34
2017-04-22T11:47:26.527Z,10.23
2017-04-22T11:48:27.106Z,10.26
2017-04-22T11:49:27.686Z,10.67
2017-04-22T11:50:28.263Z,10.97
2017-04-22T11:51:28.840Z,10.84
2017-04-22T11:52:29.418Z,10.96
2017-04-22T11:53:29.998Z,11.00
2017-04-22T11:54:30.576Z,11.26
2017-04-22T11:55:31.152Z,11.83
2017-04-22T11:56:31.730Z,11.26
2017-04-22T11:57:32.307Z,10.96
2017-04-22T11:58:32.885Z,11.18
2017-04-22T11:59:33.463Z,11.33
2017-04-22T12:00:34.041Z,10.99
2017-04-22T12:01:34.620Z,10.67
2017-04-22T12:02:35.196Z,10.63
2017-04-22T12:03:35.775Z,10.61
2017-04-22T12:04:36.355Z,10.81
2017-04-22T12:05:36.932Z,10.68
2017-04-22T12:06:37.516Z,10.97
2017-04-22T12:07:38.089Z,10.63
2017-04-22T12:08:38.668Z,10.67
2017-04-22T12:09:39.248Z,10.86
2017-04-22T12:10:39.825Z,10.72
2017-04-22T12:11:40.407Z,10.57
2017-04-22T12:12:40.981Z,10.76
2017-04-22T12:13:41.558Z,10.46
2017-04-22T12:14:42.136Z,10.42
2017-04-22T12:15:42.714Z,10.17
2017-04-22T12:16:43.293Z,10.41
2017-04-22T12:17:43.874Z,10.40
2017-04-22T12:18:44.465Z,10.37
2017-04-22T12:19:45.043Z,10.42
2017-04-22T12:20:45.622Z,10.38
2017-04-22T12:21:46.211Z,10.60
2017-04-22T12:22:46.790Z,10.57
2017-04-22T12:23:47.367Z,10.48
2017-04-22T12:24:47.944Z,10.44
2017-04-22T12:25:48.520Z,10.33
2017-04-22T12:26:49.098Z,10.33
2017-04-22T12:27:49.678Z,10.37
2017-04-22T12:28:50.256Z,10.42
2017-04-22T12:29:50.848Z,10.38
2017-04-22T12:30:51.426Z,10.53
2017-04-22T12:31:52.007Z,10.76
2017-04-22T12:32:52.584Z,10.51
2017-04-22T12:33:53.163Z,10.49
2017-04-22T12:34:53.741Z,10.56
2017-04-22T12:35:54.332Z,10.67
2017-04-22T12:36:54.910Z,10.56
2017-04-22T12:37:55.490Z,10.49
2017-04-22T12:38:56.066Z,10.67
2017-04-22T12:39:56.643Z,10.84
2017-04-22T12:40:57.223Z,10.69
2017-04-22T12:41:57.801Z,10.87
2017-04-22T12:42:58.379Z,10.63
2017-04-22T12:43:58.956Z,10.60
2017-04-22T12:44:59.535Z,10.48
2017-04-22T12:46:00.114Z,10.60
2017-04-22T12:47:00.700Z,10.75
2017-04-22T12:48:01.271Z,10.61
2017-04-22T12:49:01.850Z,10.57
2017-04-22T12:50:02.428Z,10.60
2017-04-22T12:51:03.005Z,10.51
2017-04-22T12:52:03.586Z,10.56
2017-04-22T12:53:04.177Z,10.57
2017-04-22T12:54:04.755Z,10.60
2017-04-22T12:55:05.346Z,10.46
2017-04-22T12:56:05.925Z,10.38
2017-04-22T12:57:06.501Z,10.46
2017-04-22T12:58:07.078Z,10.59
2017-04-22T12:59:07.657Z,10.69
2017-04-22T13:00:08.234Z,10.23
2017-04-22T13:01:08.810Z,10.49
2017-04-22T13:02:09.389Z,10.41
2017-04-22T13:03:09.965Z,10.33
2017-04-22T13:04:10.544Z,10.48
2017-04-22T13:05:11.124Z,10.69
2017-04-22T13:06:11.701Z,10.40
2017-04-22T13:07:12.281Z,10.59
2017-04-22T13:08:12.857Z,10.51
2017-04-22T13:09:13.437Z,10.40
2017-04-22T13:10:14.012Z,10.30
2017-04-22T13:11:14.591Z,10.42
2017-04-22T13:12:15.171Z,10.89
2017-04-22T13:13:15.752Z,11.05
2017-04-22T13:14:16.328Z,10.59
2017-04-22T13:15:16.909Z,10.44
2017-04-22T13:16:17.485Z,10.34
2017-04-22T13:17:18.061Z,10.69
2017-04-22T13:18:18.641Z,10.90
2017-04-22T13:19:19.220Z,11.18
2017-04-22T13:20:19.817Z,11.30
2017-04-22T13:21:20.394Z,11.10
2017-04-22T13:22:20.973Z,11.00